Flight Track Log - Related Links

Times and Time Zones

All times are in EDT time to prevent confusion due to time zone crossing. See the ASQ5685 flight status page for this flight to view local times or setup timezone preferences in your user account.

Time Position Orientation Groundspeed Altitude Reporting Facility
EDT Latitude Longitude Course Direction KTS MPH feet Rate Location/Type
Sat 09:59:56 AM 33.6167 -84.4833 53° Northeast 178 205 2,500  Level Atlanta TRACON
Sat 10:00:56 AM 33.5833 -84.5500 239° Southwest 258 297 4,300 2,263 Climbing Atlanta TRACON
Sat 10:01:50 AM 33.5333 -84.5833 209° Southwest 295 339 6,800 2,870 Climbing Atlanta TRACON
Sat 10:02:51 AM 33.4572 -84.5369 153° Southeast 319 367 9,800 2,083 Climbing Atlanta Center
Sat 10:03:00 AM 33.7962 -83.9009 54° Northeast  Level FlightAware Approximate
Sat 10:03:51 AM 33.4556 -84.4272 91° East 284 327 11,000  Level Atlanta Center
Sat 10:04:00 AM 33.8643 -83.7872 54° Northeast  Level FlightAware Approximate
Sat 10:04:52 AM 33.4578 -84.3078 89° East 329 379 12,900  Level Atlanta Center
Sat 10:05:00 AM 33.9394 -83.6802 53° Northeast  Level FlightAware Approximate
Sat 10:05:52 AM 33.5311 -84.2283 42° Northeast 326 375 14,400  Level Atlanta Center
Sat 10:06:51 AM 33.5897 -84.1336 53° Northeast 339 390 15,900 1,500 Climbing Atlanta Center
Sat 10:07:52 AM 33.6272 -84.0164 69° East 364 419 17,400 1,100 Climbing Atlanta Center
Sat 10:08:51 AM 33.6669 -83.8964 68° East 380 437 18,100 1,008 Climbing Atlanta Center
Sat 10:09:51 AM 33.7189 -83.7842 61° Northeast 386 444 19,400 1,150 Climbing Atlanta Center
Sat 10:10:51 AM 33.7917 -83.6789 50° Northeast 395 455 20,400 992 Climbing Atlanta Center
Sat 10:11:52 AM 33.8247 -83.5711 70° East 400 460 21,400 950 Climbing Atlanta Center
Sat 10:12:51 AM 33.8742 -83.4483 64° Northeast 393 452 22,300 756 Climbing Atlanta Center
Sat 10:13:51 AM 33.9531 -83.3425 48° Northeast 416 479 22,900 793 Climbing Atlanta Center
Sat 10:14:52 AM 34.0275 -83.2267 52° Northeast 429 494 23,900 950 Climbing Atlanta Center
Sat 10:15:51 AM 34.1039 -83.1131 51° Northeast 436 502 24,800 850 Climbing Atlanta Center
Sat 10:16:52 AM 34.1781 -82.9942 53° Northeast 442 509 25,600 744 Climbing Atlanta Center
Sat 10:17:52 AM 34.2522 -82.8778 52° Northeast 447 514 26,300 706 Climbing Atlanta Center
Sat 10:18:51 AM 34.3322 -82.7558 52° Northeast 447 514 27,000 350 Climbing Atlanta Center
Sat 10:19:52 AM 34.4164 -82.6186 53° Northeast 447 514 27,000  Level Atlanta Center
Sat 10:20:51 AM 34.4903 -82.5089 51° Northeast 455 524 27,000  Level Atlanta Center
Sat 10:21:51 AM 34.5678 -82.3889 52° Northeast 455 524 27,000  Level Atlanta Center
Sat 10:22:51 AM 34.6436 -82.2714 52° Northeast 455 524 27,000  Level Atlanta Center
Sat 10:23:51 AM 34.7167 -82.1511 54° Northeast 448 516 27,000  Level Atlanta Center
Sat 10:24:51 AM 34.7922 -82.0331 52° Northeast 442 509 27,000  Level Atlanta Center
Sat 10:25:52 AM 34.8675 -81.9172 52° Northeast 442 509 27,000  Level Atlanta Center
Sat 10:26:52 AM 34.9464 -81.7811 55° Northeast 435 501 27,000  Level Atlanta Center
Sat 10:27:51 AM 35.0233 -81.6647 51° Northeast 440 506 27,000  Level Atlanta Center
Sat 10:28:52 AM 35.0961 -81.5458 53° Northeast 440 506 27,000  Level Atlanta Center
Sat 10:29:51 AM 35.1689 -81.4244 54° Northeast 440 506 27,000  Level Atlanta Center
Sat 10:30:51 AM 35.2433 -81.3050 53° Northeast 440 506 27,000  Level Atlanta Center
Sat 10:31:52 AM 35.3178 -81.1828 53° Northeast 445 512 27,000  Level Atlanta Center
Sat 10:32:51 AM 35.3900 -81.0606 54° Northeast 445 512 27,000  Level Atlanta Center
Sat 10:33:51 AM 35.4664 -80.9381 53° Northeast 445 512 27,000  Level Atlanta Center
Sat 10:34:52 AM 35.5403 -80.8178 53° Northeast 445 512 27,000  Level Atlanta Center
Sat 10:35:51 AM 35.6142 -80.6950 53° Northeast 445 512 27,000  Level Atlanta Center
Sat 10:37:52 AM 35.7611 -80.4503 53° Northeast 443 510 27,000  Level Washington Center
Sat 10:38:52 AM 35.8350 -80.3267 54° Northeast 443 510 27,000  Level Washington Center
Sat 10:39:53 AM 35.9086 -80.2031 54° Northeast 443 510 27,000  Level Washington Center
Sat 10:40:53 AM 35.9667 -80.1064 53° Northeast 443 510 27,000  Level Washington Center
Sat 10:41:51 AM 36.0508 -79.9722 52° Northeast 443 510 27,000  Level Washington Center
Sat 10:42:51 AM 36.1222 -79.8425 56° Northeast 448 516 27,000  Level Washington Center
Sat 10:43:51 AM 36.1933 -79.7178 55° Northeast 448 516 27,000  Level Washington Center
Sat 10:44:53 AM 36.2692 -79.5775 56° Northeast 453 521 27,000  Level Washington Center
Sat 10:45:53 AM 36.3356 -79.4622 54° Northeast 448 516 27,000  Level Washington Center
Sat 10:46:51 AM 36.4064 -79.3342 55° Northeast 448 516 27,000  Level Washington Center
Sat 10:47:52 AM 36.4792 -79.2058 55° Northeast 448 516 27,000  Level Washington Center
Sat 10:48:52 AM 36.5497 -79.0825 55° Northeast 448 516 27,000  Level Washington Center
Sat 10:49:52 AM 36.6222 -78.9536 55° Northeast 443 510 27,000 -893 Level Washington Center
Sat 10:50:53 AM 36.6992 -78.8067 57° Northeast 448 516 25,200 -1,008 Descending Washington Center
Sat 10:51:51 AM 36.7692 -78.6825 55° Northeast 448 516 25,000 -101 Descending Washington Center
Sat 10:52:52 AM 36.8350 -78.5606 56° Northeast 438 504 25,000  Level Washington Center
Sat 10:53:53 AM 36.9208 -78.4550 44° Northeast 428 493 25,000  Level Washington Center
Sat 10:54:53 AM 37.0003 -78.3669 42° Northeast 422 486 25,000  Level Washington Center
Sat 10:55:52 AM 37.0942 -78.2711 39° Northeast 422 486 25,000  Level Washington Center
Sat 10:56:51 AM 37.1944 -78.1706 39° Northeast 422 486 25,000  Level Washington Center
Sat 10:57:52 AM 37.2842 -78.0769 40° Northeast 422 486 25,000 -99 Level Washington Center
Sat 10:58:52 AM 37.3756 -77.9858 38° Northeast 422 486 24,800 -950 Descending Washington Center
Sat 10:59:52 AM 37.4650 -77.8917 40° Northeast 417 480 23,100 -1,412 Descending Washington Center
Sat 11:00:51 AM 37.5647 -77.8083 34° Northeast 417 480 22,000 -1,109 Descending Washington Center
Sat 11:01:51 AM 37.6681 -77.7458 26° Northeast 417 480 20,900 -1,835 Descending Washington Center
Sat 11:02:52 AM 37.7711 -77.6856 25° Northeast 411 473 18,300 -2,350 Descending Washington Center
Sat 11:03:51 AM 37.8703 -77.6278 25° Northeast 400 460 16,200 -2,017 Descending Washington Center
Sat 11:04:51 AM 37.9608 -77.5725 26° Northeast 375 432 14,300 -1,686 Descending Washington Center
Sat 11:05:52 AM 38.0367 -77.5322 23° Northeast 342 394 12,800 -1,636 Descending Washington Center
Sat 11:06:52 AM 38.1186 -77.4842 25° Northeast 325 374 11,000 -1,361 Descending Washington Center
Sat 11:07:51 AM 38.1986 -77.4358 25° Northeast 319 367 10,100 -450 Descending Washington Center
Sat 11:08:52 AM 38.2786 -77.3878 25° Northeast 319 367 10,100 -590 Level Washington Center
Sat 11:09:53 AM 38.3606 -77.3578 16° North 313 360 8,900 -1,361 Descending Washington Center
Sat 11:10:51 AM 38.4417 -77.3597 359° North 299 344 7,400 -1,462 Descending Washington Center
Sat 11:11:52 AM 38.5208 -77.3617 359° North 292 336 6,000 -1,131 Descending Washington Center
Sat 11:12:53 AM 38.5958 -77.3661 357° North 287 330 5,100 -550 Descending Washington Center
Sat 11:13:41 AM 38.6667 -77.3667 360° North 273 314 5,000 -333 Descending Potomac TRACON
Sat 11:14:41 AM 38.7333 -77.3500 11° North 273 314 4,500 -500 Descending Potomac TRACON
Sat 11:15:41 AM 38.8167 -77.3500 360° North 265 305 4,000 -248 Descending Potomac TRACON
Sat 11:16:42 AM 38.8833 -77.3500 360° North 238 274 4,000  Level Potomac TRACON
Sat 11:17:36 AM 38.9500 -77.3500 360° North 233 268 4,000  Level Potomac TRACON
Sat 11:18:37 AM 39.0167 -77.3500 360° North 232 267 4,000  Level Potomac TRACON
Sat 11:19:37 AM 39.0833 -77.3500 360° North 231 266 4,000 -500 Level Potomac TRACON
Sat 11:20:37 AM 39.1500 -77.3500 360° North 223 257 3,000 -496 Descending Potomac TRACON
Sat 11:21:38 AM 39.1667 -77.3833 303° West 227 261 3,000  Level Potomac TRACON
Sat 11:22:38 AM 39.1333 -77.4333 229° Southwest 192 221 3,000 -50 Level Potomac TRACON
Sat 11:23:38 AM 39.0833 -77.4333 180° South 170 196 2,900 -450 Descending Potomac TRACON
Sat 11:24:38 AM 39.0500 -77.4333 180° South 136 157 2,100 -793 Descending Potomac TRACON
Sat 11:25:39 AM 39.0000 -77.4333 180° South 137 158 1,300 -744 Descending Potomac TRACON
Sat 11:26:39 AM 38.9667 -77.4333 180° South 139 160 600 -700 Descending Potomac TRACON

Login

Don't have an account? Register now (free) for customized features, flight alerts, and more!